Time;durP1;ratioP1;P1;durP2;ratioP2;P2;SDS_P1;SDS_P2;PMS_P1;PMS_P2;Temp;Humidity;BMP_temperature;BMP_pressure;BME280_temperature;BME280_humidity;BME280_pressure;Samples;Min_cycle;Max_cycle;Signal;HPM_P1;HPM_P2
2023/01/04 00:01:34;;;;;;;14.50;9.30;;;;;;;9.98;68.14;95592.00;4152674;28;20050;-75
2023/01/04 00:03:37;;;;;;;20.63;10.05;;;;;;;10.03;68.08;95590.63;4158418;28;20054;-74
2023/01/04 00:05:38;;;;;;;13.07;9.38;;;;;;;9.96;68.14;95586.06;4176072;28;20133;-76
2023/01/04 00:07:40;;;;;;;14.43;9.10;;;;;;;9.98;68.15;95589.38;4163539;28;20457;-75
2023/01/04 00:09:42;;;;;;;15.05;9.52;;;;;;;10.00;67.67;95590.06;4163880;28;20591;-75
2023/01/04 00:11:44;;;;;;;12.18;8.50;;;;;;;10.07;67.78;95600.84;4161059;28;20057;-74
2023/01/04 00:13:47;;;;;;;14.90;8.60;;;;;;;10.01;67.71;95597.78;4157521;28;20077;-74
2023/01/04 00:15:49;;;;;;;13.82;9.20;;;;;;;10.00;67.62;95603.16;4163616;28;20204;-75
2023/01/04 00:17:51;;;;;;;13.80;8.40;;;;;;;9.97;67.26;95591.16;4162884;28;20107;-73
2023/01/04 00:19:52;;;;;;;17.33;8.23;;;;;;;10.04;67.51;95607.16;4177941;28;20061;-75
2023/01/04 00:21:54;;;;;;;11.13;8.60;;;;;;;10.07;66.74;95583.34;4174212;28;20049;-77
2023/01/04 00:23:58;;;;;;;13.07;8.55;;;;;;;10.14;67.08;95583.66;4172872;28;20580;-75
2023/01/04 00:26:00;;;;;;;11.15;8.77;;;;;;;10.15;66.83;95591.38;4180305;28;20057;-75
2023/01/04 00:28:02;;;;;;;14.77;9.10;;;;;;;10.10;66.60;95593.53;4164026;28;20057;-73
2023/01/04 00:30:04;;;;;;;11.95;8.18;;;;;;;10.17;66.49;95592.03;4164397;28;20057;-76
2023/01/04 00:32:06;;;;;;;13.38;8.07;;;;;;;10.13;66.53;95598.53;4162721;28;20084;-76
2023/01/04 00:34:10;;;;;;;12.80;8.07;;;;;;;10.15;66.50;95601.84;4163458;28;20057;-74
2023/01/04 00:36:13;;;;;;;11.35;7.43;;;;;;;10.16;66.12;95597.44;4161314;28;20049;-74
2023/01/04 00:38:15;;;;;;;13.75;8.65;;;;;;;10.10;66.58;95613.69;4178286;28;20056;-76
2023/01/04 00:40:16;;;;;;;14.32;9.10;;;;;;;10.12;66.50;95596.88;4177191;28;20218;-76
2023/01/04 00:42:18;;;;;;;10.70;8.02;;;;;;;10.15;66.05;95596.63;4178496;28;20056;-74
2023/01/04 00:44:20;;;;;;;11.25;8.38;;;;;;;10.18;66.38;95596.31;4169689;28;20057;-76
2023/01/04 00:46:22;;;;;;;13.98;8.00;;;;;;;10.14;66.16;95599.34;4166359;28;20448;-75
2023/01/04 00:48:24;;;;;;;11.75;8.35;;;;;;;9.99;66.86;95607.56;4162168;28;20072;-75
2023/01/04 00:50:26;;;;;;;13.35;8.32;;;;;;;10.02;66.33;95591.63;4162742;28;20328;-75
2023/01/04 00:52:27;;;;;;;12.18;8.70;;;;;;;10.10;66.28;95603.19;4163115;28;20317;-74
2023/01/04 00:54:29;;;;;;;12.13;8.48;;;;;;;10.05;65.88;95596.56;4164345;28;20057;-76
2023/01/04 00:56:32;;;;;;;13.13;8.40;;;;;;;10.04;66.25;95599.31;4174903;28;20495;-74
2023/01/04 00:58:33;;;;;;;12.85;8.52;;;;;;;10.04;66.31;95596.69;4163636;28;20054;-76
2023/01/04 01:00:36;;;;;;;10.63;8.02;;;;;;;9.98;66.61;95600.69;4175374;28;20140;-75
2023/01/04 01:02:37;;;;;;;13.18;8.82;;;;;;;9.99;66.38;95596.28;4161677;28;20257;-76
2023/01/04 01:04:39;;;;;;;10.65;8.60;;;;;;;10.11;66.21;95610.94;4179250;28;20137;-74
2023/01/04 01:06:41;;;;;;;13.40;8.90;;;;;;;10.08;66.38;95605.94;4170952;28;20107;-74
2023/01/04 01:08:43;;;;;;;11.68;9.20;;;;;;;10.13;66.25;95595.91;4180160;28;20155;-74
2023/01/04 01:10:44;;;;;;;13.93;9.30;;;;;;;10.05;65.77;95614.91;4178346;28;20087;-73
2023/01/04 01:12:46;;;;;;;12.13;7.72;;;;;;;10.05;66.15;95608.84;4172067;28;20141;-75
2023/01/04 01:14:48;;;;;;;14.00;8.48;;;;;;;10.02;66.01;95622.19;4180885;28;20428;-76
2023/01/04 01:16:50;;;;;;;17.00;8.70;;;;;;;10.02;66.13;95616.94;4179963;28;20049;-77
2023/01/04 01:18:57;;;;;;;12.32;8.43;;;;;;;10.08;65.67;95626.06;4170125;28;20061;-74
2023/01/04 01:20:59;;;;;;;18.30;8.93;;;;;;;10.03;65.89;95618.63;4174902;28;20089;-74
2023/01/04 01:23:01;;;;;;;12.18;9.15;;;;;;;10.10;65.88;95621.53;4168156;28;20053;-76
2023/01/04 01:25:03;;;;;;;12.38;9.10;;;;;;;10.05;65.93;95622.75;4176781;28;20049;-74
2023/01/04 01:27:05;;;;;;;11.85;8.68;;;;;;;10.13;65.79;95623.88;4161635;28;20477;-74
2023/01/04 01:29:07;;;;;;;13.95;8.77;;;;;;;10.07;65.91;95625.25;4178929;28;20049;-74
2023/01/04 01:31:12;;;;;;;13.25;9.38;;;;;;;10.03;65.71;95611.59;4178880;28;20080;-76
2023/01/04 01:33:14;;;;;;;12.93;9.05;;;;;;;9.99;65.96;95615.44;4159971;28;20061;-75
2023/01/04 01:35:16;;;;;;;13.88;9.15;;;;;;;9.95;66.05;95613.22;4178741;28;20049;-74
2023/01/04 01:37:18;;;;;;;15.00;9.40;;;;;;;9.97;66.55;95619.16;4161720;28;20068;-75
2023/01/04 01:39:19;;;;;;;11.65;8.60;;;;;;;9.97;66.07;95619.16;4180670;28;20067;-75
2023/01/04 01:41:29;;;;;;;12.63;9.23;;;;;;;9.98;66.52;95619.03;4179833;28;20389;-74
2023/01/04 01:44:22;;;;;;;15.25;9.35;;;;;;;9.96;66.06;95609.63;4178555;28;20159;-76
2023/01/04 01:46:37;;;;;;;13.50;9.27;;;;;;;9.98;66.61;95610.31;4128100;28;20601;-74
2023/01/04 01:48:40;;;;;;;12.85;9.10;;;;;;;9.94;66.31;95614.19;4146178;28;20053;-73
2023/01/04 01:51:08;;;;;;;15.23;8.83;;;;;;;9.90;66.53;95618.03;4177582;28;20051;-76
2023/01/04 01:53:10;;;;;;;13.80;9.18;;;;;;;9.84;66.46;95607.09;4151908;28;20112;-76
2023/01/04 01:55:13;;;;;;;11.05;8.73;;;;;;;9.86;67.03;95603.53;4160567;28;20378;-75
2023/01/04 01:57:20;;;;;;;14.57;9.23;;;;;;;9.81;66.82;95604.78;4160546;28;20049;-74
2023/01/04 01:59:22;;;;;;;13.63;8.80;;;;;;;9.80;66.49;95602.28;4150640;28;20271;-74
2023/01/04 02:01:23;;;;;;;18.55;9.68;;;;;;;9.88;66.33;95599.81;4157052;28;20049;-76
2023/01/04 02:03:36;;;;;;;12.50;9.20;;;;;;;9.77;67.03;95600.75;4172901;28;20164;-76
2023/01/04 02:05:38;;;;;;;13.35;8.73;;;;;;;9.79;67.03;95595.41;4154196;28;20057;-75
2023/01/04 02:07:40;;;;;;;16.83;9.52;;;;;;;9.75;67.21;95592.22;4159793;28;20465;-76
2023/01/04 02:09:43;;;;;;;14.70;9.55;;;;;;;9.79;67.08;95596.22;4174897;28;20049;-74
2023/01/04 02:11:45;;;;;;;14.37;9.23;;;;;;;9.82;66.62;95592.50;4156632;28;20094;-75
2023/01/04 02:16:09;;;;;;;13.52;9.90;;;;;;;9.83;66.91;95597.63;4178417;28;20053;-75
2023/01/04 02:18:15;;;;;;;14.07;9.60;;;;;;;9.72;67.16;95597.72;4164068;28;20084;-74
2023/01/04 02:20:23;;;;;;;14.73;10.07;;;;;;;9.74;66.89;95601.00;4163519;28;20053;-74
2023/01/04 02:22:37;;;;;;;14.10;10.13;;;;;;;9.79;66.81;95596.22;4167186;28;20057;-74
2023/01/04 02:25:05;;;;;;;13.38;9.95;;;;;;;9.79;67.14;95601.44;4162318;28;20053;-74
2023/01/04 02:27:33;;;;;;;15.13;10.45;;;;;;;9.72;66.78;95597.72;4167237;28;20049;-73
2023/01/04 02:29:49;;;;;;;15.38;9.77;;;;;;;9.67;67.21;95599.88;4153231;28;20057;-74
2023/01/04 02:32:10;;;;;;;14.98;10.43;;;;;;;9.66;67.64;95594.78;4160364;28;20105;-76
2023/01/04 02:34:23;;;;;;;14.68;10.32;;;;;;;9.58;67.38;95587.59;4160433;28;20505;-76
2023/01/04 02:36:43;;;;;;;15.40;10.38;;;;;;;9.63;67.72;95586.22;4144608;28;20062;-75
2023/01/04 02:38:54;;;;;;;16.85;9.88;;;;;;;9.65;67.67;95593.94;4161524;28;20084;-74
2023/01/04 02:41:02;;;;;;;13.55;9.98;;;;;;;9.71;67.13;95590.81;4177468;28;20106;-74
2023/01/04 02:45:57;;;;;;;15.27;11.15;;;;;;;9.52;67.90;95593.34;4155824;28;20088;-75
2023/01/04 02:50:38;;;;;;;17.83;10.80;;;;;;;9.51;67.75;95587.28;4176722;28;20144;-75
2023/01/04 02:52:40;;;;;;;18.40;11.55;;;;;;;9.52;68.25;95593.34;4148960;28;20045;-74
2023/01/04 02:54:42;;;;;;;19.45;10.85;;;;;;;9.24;69.06;95587.81;4153910;28;20056;-74
2023/01/04 02:57:06;;;;;;;19.02;11.30;;;;;;;9.23;69.48;95594.84;4177213;28;20132;-75
2023/01/04 02:59:34;;;;;;;15.63;10.70;;;;;;;9.28;69.26;95594.47;4163497;28;20053;-75
2023/01/04 03:06:41;;;;;;;15.45;10.93;;;;;;;9.13;69.55;95593.13;4161905;28;20128;-74
2023/01/04 03:08:54;;;;;;;15.43;10.07;;;;;;;9.20;69.23;95589.03;4154485;28;20068;-74
2023/01/04 03:12:30;;;;;;;16.02;10.63;;;;;;;9.26;68.46;95580.69;4168612;28;20060;-74
2023/01/04 03:13:39;;;;;;;15.73;10.48;;;;;;;9.34;69.01;95580.88;4166740;28;20044;-73
2023/01/04 03:15:45;;;;;;;16.65;11.18;;;;;;;9.37;68.79;95585.00;4163724;28;20152;-73
2023/01/04 03:17:52;;;;;;;16.45;11.00;;;;;;;9.36;68.62;95581.56;4162161;28;20058;-74
2023/01/04 03:19:55;;;;;;;17.85;10.88;;;;;;;9.26;68.77;95585.91;4180451;28;20099;-75
2023/01/04 03:21:57;;;;;;;16.03;11.30;;;;;;;9.26;69.40;95591.16;4162953;28;20050;-75
2023/01/04 03:36:23;;;;;;;18.35;11.80;;;;;;;9.14;69.69;95606.09;4155583;28;20060;-74
2023/01/04 03:49:15;;;;;;;18.25;11.25;;;;;;;8.96;70.33;95602.38;4152436;28;20277;-75
2023/01/04 03:51:27;;;;;;;16.60;11.82;;;;;;;8.86;70.40;95602.28;4181280;28;20148;-74
2023/01/04 03:53:31;;;;;;;22.58;12.48;;;;;;;8.81;70.45;95604.47;4168353;28;20091;-74
2023/01/04 03:55:34;;;;;;;16.20;12.05;;;;;;;8.85;70.86;95603.25;4161596;28;20074;-74
2023/01/04 03:57:36;;;;;;;17.65;12.73;;;;;;;8.78;70.58;95605.56;4180131;28;20057;-72
2023/01/04 03:59:45;;;;;;;22.10;12.70;;;;;;;8.78;70.81;95600.31;4162437;28;20199;-74
2023/01/04 04:01:47;;;;;;;21.92;12.43;;;;;;;8.75;70.86;95604.97;4156209;28;20217;-74
2023/01/04 04:08:29;;;;;;;18.80;11.38;;;;;;;8.75;70.72;95604.97;4171582;28;20061;-73
2023/01/04 04:10:31;;;;;;;20.48;11.80;;;;;;;8.72;71.29;95610.44;4175789;28;20072;-74
2023/01/04 04:12:33;;;;;;;17.42;12.00;;;;;;;8.82;71.29;95606.13;4178857;28;20056;-74
2023/01/04 04:14:35;;;;;;;20.60;11.40;;;;;;;8.74;71.17;95630.25;4161739;28;20049;-75
2023/01/04 04:16:37;;;;;;;20.55;11.73;;;;;;;8.74;70.57;95621.59;4160889;28;20057;-74
2023/01/04 04:18:39;;;;;;;18.35;11.15;;;;;;;8.72;71.39;95626.13;4179178;28;20366;-75
2023/01/04 04:20:41;;;;;;;18.42;11.77;;;;;;;8.67;70.88;95616.06;4177323;28;20056;-74
2023/01/04 04:22:42;;;;;;;18.00;11.38;;;;;;;8.71;70.98;95620.06;4154901;28;20081;-75
2023/01/04 04:24:44;;;;;;;18.77;12.07;;;;;;;8.68;71.14;95615.09;4171390;28;20060;-76
2023/01/04 04:26:46;;;;;;;15.85;10.90;;;;;;;8.67;70.87;95623.88;4179018;28;20370;-73
2023/01/04 04:28:49;;;;;;;16.98;10.65;;;;;;;8.68;70.88;95619.50;4177864;28;20127;-76
2023/01/04 04:30:51;;;;;;;17.07;11.10;;;;;;;8.64;70.63;95621.50;4178148;28;20080;-76
2023/01/04 04:32:53;;;;;;;18.60;10.82;;;;;;;8.60;70.91;95620.09;4177464;28;20559;-75
2023/01/04 04:34:55;;;;;;;17.35;10.10;;;;;;;8.68;70.82;95620.31;4166609;28;20077;-75
2023/01/04 04:36:56;;;;;;;17.83;11.85;;;;;;;8.72;70.68;95629.56;4177785;28;20904;-73
2023/01/04 04:38:58;;;;;;;18.98;12.25;;;;;;;8.71;70.45;95629.66;4180200;28;20126;-76
2023/01/04 04:43:26;;;;;;;16.80;11.05;;;;;;;8.58;70.59;95633.31;4148088;28;20057;-74
2023/01/04 04:45:28;;;;;;;17.33;12.00;;;;;;;8.62;71.27;95631.25;4163566;28;20584;-73
2023/01/04 04:47:29;;;;;;;15.63;11.07;;;;;;;8.68;70.92;95635.97;4176026;28;20272;-75
2023/01/04 04:49:32;;;;;;;16.92;11.85;;;;;;;8.70;70.56;95628.03;4170286;28;20084;-73
2023/01/04 04:51:34;;;;;;;18.88;12.40;;;;;;;8.68;70.12;95629.94;4169862;28;20054;-76
2023/01/04 04:53:36;;;;;;;17.27;11.95;;;;;;;8.64;70.73;95626.72;4163234;28;20195;-76
2023/01/04 04:55:38;;;;;;;19.00;12.32;;;;;;;8.65;70.73;95630.16;4179792;28;20433;-76
2023/01/04 04:57:39;;;;;;;15.57;11.32;;;;;;;8.71;70.77;95634.91;4172948;28;20404;-76
2023/01/04 04:59:41;;;;;;;18.85;12.95;;;;;;;8.67;71.49;95633.47;4173649;28;20118;-75
2023/01/04 05:01:43;;;;;;;19.45;12.73;;;;;;;8.59;71.22;95627.09;4171562;28;20118;-75
2023/01/04 05:03:45;;;;;;;21.55;12.13;;;;;;;8.41;71.98;95636.44;4152123;28;20061;-76
2023/01/04 05:05:47;;;;;;;19.33;12.70;;;;;;;8.48;71.98;95634.16;4176323;28;20060;-76
2023/01/04 05:07:49;;;;;;;21.85;11.95;;;;;;;8.37;71.92;95645.44;4165557;28;20048;-78
2023/01/04 05:09:50;;;;;;;17.17;11.40;;;;;;;8.32;72.30;95650.19;4180841;28;20538;-74
2023/01/04 05:14:13;;;;;;;20.13;12.48;;;;;;;8.31;72.12;95641.53;4179078;28;20251;-75
2023/01/04 05:16:14;;;;;;;22.25;12.25;;;;;;;8.26;72.95;95653.25;4178521;28;20064;-77
2023/01/04 05:18:18;;;;;;;19.75;12.45;;;;;;;8.31;72.78;95641.53;4178572;28;20102;-76
2023/01/04 05:20:20;;;;;;;16.67;11.70;;;;;;;8.34;72.12;95645.66;4160926;28;20225;-76
2023/01/04 05:22:22;;;;;;;18.27;12.25;;;;;;;8.22;73.13;95660.53;4178550;28;20460;-76
2023/01/04 05:24:23;;;;;;;20.10;13.00;;;;;;;8.18;72.50;95644.28;4178456;28;20049;-75
2023/01/04 05:26:25;;;;;;;20.38;12.23;;;;;;;8.27;72.68;95652.34;4172303;28;20091;-77
2023/01/04 05:28:27;;;;;;;18.05;12.98;;;;;;;8.36;72.41;95641.16;4184710;28;20118;-76
2023/01/04 05:32:50;;;;;;;18.40;12.18;;;;;;;8.40;72.04;95647.78;4178344;28;20140;-76
2023/01/04 05:34:52;;;;;;;19.08;12.15;;;;;;;8.40;72.16;95651.25;4178835;28;20061;-78
2023/01/04 05:36:54;;;;;;;18.25;12.35;;;;;;;8.44;71.84;95654.47;4160843;28;20053;-75
2023/01/04 05:38:56;;;;;;;22.45;11.93;;;;;;;8.48;71.88;95653.25;4179572;28;20118;-79
2023/01/04 05:40:58;;;;;;;19.33;13.10;;;;;;;8.50;71.26;95646.13;4161587;28;20354;-74
2023/01/04 05:42:59;;;;;;;19.75;13.43;;;;;;;8.51;70.78;95660.03;4177980;28;20053;-76
2023/01/04 05:45:01;;;;;;;18.08;11.23;;;;;;;8.49;70.67;95657.53;4159444;28;20057;-74
2023/01/04 05:47:03;;;;;;;19.05;12.13;;;;;;;8.47;71.15;95662.03;4178154;28;20049;-74
2023/01/04 05:49:21;;;;;;;16.33;11.18;;;;;;;8.44;71.06;95658.88;4168657;28;20054;-76
2023/01/04 05:51:23;;;;;;;17.05;11.65;;;;;;;8.45;71.35;95661.31;4169462;28;20520;-74
2023/01/04 05:53:25;;;;;;;18.35;11.80;;;;;;;8.50;71.21;95661.00;4171887;28;20107;-76
2023/01/04 05:55:27;;;;;;;18.45;12.50;;;;;;;8.47;71.54;95654.19;4168862;28;20126;-75
2023/01/04 05:57:29;;;;;;;15.43;10.95;;;;;;;8.52;70.93;95654.69;4174338;28;20057;-78
2023/01/04 05:59:31;;;;;;;18.63;11.20;;;;;;;8.61;70.48;95666.19;4178615;28;20087;-72
2023/01/04 06:01:41;;;;;;;19.75;11.68;;;;;;;8.61;70.88;95653.94;4162457;28;20045;-76
2023/01/04 06:03:43;;;;;;;18.92;11.50;;;;;;;8.67;70.19;95660.47;4178356;28;20087;-74
2023/01/04 06:05:49;;;;;;;18.27;12.45;;;;;;;8.67;70.37;95665.69;4179097;28;20513;-75
2023/01/04 06:07:51;;;;;;;16.10;11.15;;;;;;;8.68;70.33;95662.09;4162354;28;20469;-77
2023/01/04 06:09:53;;;;;;;20.35;11.30;;;;;;;8.71;70.02;95668.84;4164429;28;20065;-76
2023/01/04 06:11:56;;;;;;;19.95;11.52;;;;;;;8.71;69.91;95667.09;4145502;28;20457;-75
2023/01/04 06:13:58;;;;;;;18.83;11.85;;;;;;;8.61;69.61;95671.41;4176545;28;20427;-75
2023/01/04 06:15:59;;;;;;;21.00;11.88;;;;;;;8.66;69.71;95671.03;4172931;28;20107;-77
2023/01/04 06:18:01;;;;;;;22.00;11.70;;;;;;;8.66;69.72;95674.47;4170335;28;20083;-76
2023/01/04 06:20:08;;;;;;;20.33;12.18;;;;;;;8.56;69.94;95676.13;4178162;28;20085;-77
2023/01/04 06:22:10;;;;;;;17.63;10.77;;;;;;;8.53;69.90;95684.22;4163480;28;20552;-77
2023/01/04 06:24:12;;;;;;;17.02;10.95;;;;;;;8.61;69.44;95682.66;4168287;28;20397;-76
2023/01/04 06:26:13;;;;;;;17.35;10.93;;;;;;;8.64;69.78;95678.16;4169318;28;20053;-76
2023/01/04 06:28:15;;;;;;;23.33;11.35;;;;;;;8.58;70.06;95682.94;4163258;28;20454;-77
2023/01/04 06:30:19;;;;;;;17.17;10.70;;;;;;;8.57;70.15;95683.03;4176166;28;20138;-77
2023/01/04 06:32:21;;;;;;;15.07;11.27;;;;;;;8.60;69.49;95683.63;4178069;28;20061;-78
2023/01/04 06:34:23;;;;;;;17.00;10.88;;;;;;;8.63;70.30;95681.72;4177527;28;20060;-78
2023/01/04 06:36:31;;;;;;;19.92;11.27;;;;;;;8.67;69.56;95681.34;4178566;28;20385;-76
2023/01/04 06:38:33;;;;;;;13.75;10.32;;;;;;;8.54;69.95;95691.94;4177584;28;20053;-78
2023/01/04 06:40:35;;;;;;;18.63;10.80;;;;;;;8.60;70.13;95701.06;4178461;28;20061;-76
2023/01/04 06:45:25;;;;;;;18.50;11.60;;;;;;;8.64;69.79;95693.81;4165156;28;20151;-78
2023/01/04 06:47:26;;;;;;;17.27;10.82;;;;;;;8.63;69.99;95702.63;4179732;28;20056;-75
2023/01/04 06:49:28;;;;;;;15.13;10.20;;;;;;;8.63;69.40;95702.63;4174465;28;20049;-77
2023/01/04 06:51:30;;;;;;;18.83;11.10;;;;;;;8.71;69.01;95692.38;4178756;28;20120;-76
2023/01/04 06:53:32;;;;;;;15.80;10.13;;;;;;;8.75;68.57;95699.00;4174051;28;20503;-81
2023/01/04 06:55:33;;;;;;;16.58;10.05;;;;;;;8.75;68.40;95699.00;4181324;28;20055;-76
2023/01/04 06:57:36;;;;;;;19.92;11.07;;;;;;;8.70;68.62;95698.56;4163111;28;20411;-78
2023/01/04 06:59:40;;;;;;;15.98;9.98;;;;;;;8.67;68.84;95691.81;4175936;28;20130;-77
2023/01/04 07:01:41;;;;;;;18.77;10.75;;;;;;;8.61;69.30;95687.06;4172583;28;20115;-77
2023/01/04 07:03:45;;;;;;;16.67;10.60;;;;;;;8.65;69.22;95695.47;4171014;28;20613;-77
2023/01/04 07:05:46;;;;;;;17.90;10.45;;;;;;;8.63;68.80;95689.56;4177329;28;20646;-79
2023/01/04 07:07:48;;;;;;;16.27;10.30;;;;;;;8.66;68.67;95687.53;4177049;28;20431;-78
2023/01/04 07:09:50;;;;;;;16.15;11.00;;;;;;;8.79;68.58;95696.03;4170501;28;20554;-76
2023/01/04 07:11:51;;;;;;;18.98;11.20;;;;;;;8.89;68.10;95705.75;4180206;28;20061;-75
2023/01/04 07:13:53;;;;;;;15.35;10.82;;;;;;;8.81;68.18;95711.59;4166435;28;20385;-75
2023/01/04 07:15:55;;;;;;;20.60;11.18;;;;;;;8.75;68.89;95706.84;4149742;28;20049;-74
2023/01/04 07:17:57;;;;;;;16.58;11.00;;;;;;;8.72;68.81;95714.94;4179446;28;20049;-75
2023/01/04 07:19:58;;;;;;;17.08;11.13;;;;;;;8.77;68.52;95699.72;4169826;28;20050;-78
2023/01/04 07:22:00;;;;;;;17.45;10.63;;;;;;;8.79;68.36;95705.66;4164734;28;20132;-78
2023/01/04 07:24:02;;;;;;;17.15;11.50;;;;;;;8.74;68.45;95718.25;4165029;28;20221;-79
2023/01/04 07:26:04;;;;;;;22.77;11.85;;;;;;;8.80;68.94;95720.41;4165041;28;20057;-77
2023/01/04 07:28:06;;;;;;;18.52;11.27;;;;;;;8.81;68.09;95720.25;4160539;28;20418;-77
2023/01/04 07:30:08;;;;;;;18.60;11.18;;;;;;;8.82;68.45;95718.50;4179316;28;20053;-81
2023/01/04 07:32:10;;;;;;;16.80;11.35;;;;;;;8.87;68.32;95721.56;4150060;28;20057;-76
2023/01/04 07:34:17;;;;;;;17.27;10.45;;;;;;;8.82;68.32;95721.91;4179066;28;20056;-75
2023/01/04 07:36:19;;;;;;;18.08;11.40;;;;;;;8.79;68.22;95719.53;4179267;28;20126;-76
2023/01/04 07:38:20;;;;;;;17.70;10.90;;;;;;;8.91;68.31;95727.38;4160960;28;20049;-79
2023/01/04 07:40:22;;;;;;;20.20;11.98;;;;;;;8.84;68.00;95716.59;4179534;28;20061;-78
2023/01/04 07:42:24;;;;;;;17.13;11.65;;;;;;;8.81;68.20;95722.03;4180004;28;20601;-75
2023/01/04 07:44:27;;;;;;;19.77;11.70;;;;;;;8.75;68.77;95730.34;4180014;28;20061;-77
2023/01/04 07:46:28;;;;;;;19.20;11.70;;;;;;;8.86;68.50;95725.09;4167962;28;20053;-75
2023/01/04 07:48:30;;;;;;;19.13;12.10;;;;;;;8.77;68.31;95729.28;4179495;28;20052;-76
2023/01/04 07:50:32;;;;;;;17.40;11.13;;;;;;;8.85;68.51;95717.41;4180515;28;20067;-79
2023/01/04 07:52:34;;;;;;;19.10;11.88;;;;;;;8.94;67.88;95725.31;4179475;28;20333;-80
2023/01/04 07:54:35;;;;;;;17.77;11.70;;;;;;;8.91;68.23;95725.56;4179668;28;20056;-76
2023/01/04 07:56:37;;;;;;;15.93;10.95;;;;;;;8.85;68.26;95726.06;4162162;28;20076;-76
2023/01/04 07:58:40;;;;;;;15.88;10.90;;;;;;;8.92;68.22;95724.59;4166447;28;20057;-78
2023/01/04 08:00:42;;;;;;;18.40;10.50;;;;;;;8.94;68.11;95733.16;4179854;28;20064;-76
2023/01/04 08:02:44;;;;;;;20.50;11.05;;;;;;;8.75;68.18;95732.97;4179102;28;20135;-79
2023/01/04 08:04:46;;;;;;;15.32;10.25;;;;;;;8.70;68.96;95730.72;4179712;28;20121;-79
2023/01/04 08:06:48;;;;;;;16.67;11.02;;;;;;;8.77;68.15;95729.28;4155358;28;20112;-76
2023/01/04 08:08:50;;;;;;;23.70;11.73;;;;;;;8.90;68.46;95729.13;4180392;28;20122;-78
2023/01/04 08:10:51;;;;;;;16.40;10.75;;;;;;;8.93;67.96;95728.06;4179867;28;20103;-74
2023/01/04 08:12:53;;;;;;;14.90;10.13;;;;;;;8.96;67.47;95728.63;4181671;28;20052;-77
2023/01/04 08:14:55;;;;;;;15.60;10.38;;;;;;;8.96;67.82;95733.88;4161999;28;20081;-78
2023/01/04 08:16:57;;;;;;;17.77;10.00;;;;;;;8.95;67.30;95745.28;4161369;28;20072;-77
2023/01/04 08:19:00;;;;;;;19.50;10.77;;;;;;;8.95;67.38;95728.78;4179453;28;20052;-76
2023/01/04 08:21:04;;;;;;;17.08;10.90;;;;;;;8.95;67.76;95737.44;4173823;28;20108;-79
2023/01/04 08:23:06;;;;;;;15.35;10.88;;;;;;;9.01;67.38;95731.72;4173438;28;20416;-77
2023/01/04 08:25:08;;;;;;;17.27;10.02;;;;;;;8.97;67.55;95730.31;4179991;28;20357;-76
2023/01/04 08:27:10;;;;;;;17.25;10.32;;;;;;;8.94;67.49;95725.31;4181067;28;20049;-78
2023/01/04 08:29:12;;;;;;;18.95;11.05;;;;;;;8.97;67.73;95734.69;4180143;28;20045;-76
2023/01/04 08:31:17;;;;;;;20.35;11.57;;;;;;;8.97;67.28;95738.16;4178385;28;20049;-75
2023/01/04 08:33:18;;;;;;;18.42;11.32;;;;;;;9.02;67.32;95732.56;4177238;28;20060;-78
2023/01/04 08:35:20;;;;;;;19.50;10.65;;;;;;;9.02;66.88;95737.78;4160730;28;20065;-77
2023/01/04 08:37:22;;;;;;;17.77;11.25;;;;;;;8.87;67.38;95729.38;4161706;28;20073;-78
2023/01/04 08:39:24;;;;;;;17.63;11.35;;;;;;;8.89;67.10;95737.13;4181201;28;20053;-81
2023/01/04 08:41:26;;;;;;;18.58;11.07;;;;;;;8.81;68.65;95730.69;4165730;28;20080;-77
2023/01/04 08:43:47;;;;;;;16.95;12.00;;;;;;;8.78;68.84;95730.13;4180679;28;20052;-76
2023/01/04 08:45:49;;;;;;;16.23;11.38;;;;;;;8.76;68.27;95734.66;4179605;28;20082;-78
2023/01/04 08:47:51;;;;;;;19.85;11.90;;;;;;;8.76;68.42;95743.31;4179688;28;20183;-78
2023/01/04 08:49:52;;;;;;;19.42;11.00;;;;;;;8.80;68.27;95736.06;4153758;28;20057;-79
2023/01/04 08:51:54;;;;;;;17.48;10.75;;;;;;;8.77;68.28;95734.50;4147036;28;20081;-78
2023/01/04 08:53:57;;;;;;;21.52;13.13;;;;;;;8.27;69.71;95734.09;4177342;28;20045;-77
2023/01/04 08:55:59;;;;;;;21.70;11.90;;;;;;;8.23;70.23;95735.25;4165203;28;20057;-76
2023/01/04 08:58:02;;;;;;;24.67;12.38;;;;;;;8.32;69.78;95741.56;4164429;28;20056;-78
2023/01/04 09:00:06;;;;;;;16.35;10.85;;;;;;;8.44;69.03;95742.41;4159912;28;20480;-78
2023/01/04 09:02:18;;;;;;;16.13;10.50;;;;;;;8.47;68.82;95742.16;4161808;28;20045;-75
2023/01/04 09:04:20;;;;;;;15.45;10.15;;;;;;;8.38;68.85;95735.84;4179300;28;20071;-79
2023/01/04 09:06:22;;;;;;;18.38;10.38;;;;;;;8.29;69.52;95740.00;4161138;28;20096;-76
2023/01/04 09:08:24;;;;;;;18.13;11.38;;;;;;;8.26;69.37;95740.25;4161434;28;20065;-77
2023/01/04 09:10:26;;;;;;;18.33;11.48;;;;;;;8.37;69.03;95734.22;4179664;28;20393;-75
2023/01/04 09:12:28;;;;;;;17.77;10.98;;;;;;;8.42;68.80;95739.91;4180245;28;20507;-77
2023/01/04 09:14:29;;;;;;;16.95;12.35;;;;;;;8.49;68.64;95735.88;4179733;28;20064;-77
2023/01/04 09:16:31;;;;;;;20.30;12.52;;;;;;;8.51;68.89;95733.97;4161788;28;20057;-80
2023/01/04 09:18:34;;;;;;;16.77;11.57;;;;;;;8.39;69.20;95737.53;4170597;28;20144;-76
2023/01/04 09:20:36;;;;;;;17.73;12.32;;;;;;;8.51;68.93;95733.16;4162360;28;20116;-83
2023/01/04 09:22:38;;;;;;;23.92;12.23;;;;;;;8.61;68.94;95734.09;4132843;28;20050;-74
2023/01/04 09:24:39;;;;;;;19.08;12.50;;;;;;;8.61;68.99;95737.53;4176289;28;20059;-78
2023/01/04 09:26:41;;;;;;;18.52;10.93;;;;;;;8.49;68.96;95732.44;4183629;28;20053;-76
2023/01/04 09:28:43;;;;;;;15.32;10.43;;;;;;;8.49;68.17;95737.66;4179561;28;20555;-73
2023/01/04 09:30:46;;;;;;;16.58;11.13;;;;;;;8.32;68.18;95738.94;4178024;28;20103;-74
2023/01/04 09:32:53;;;;;;;14.35;10.50;;;;;;;8.29;69.16;95737.41;4170956;28;20059;-75
2023/01/04 09:34:55;;;;;;;14.25;9.70;;;;;;;8.35;68.79;95723.88;4180635;28;20092;-78
2023/01/04 09:36:57;;;;;;;15.82;9.68;;;;;;;8.18;68.08;95727.78;4179950;28;20090;-75
2023/01/04 09:38:58;;;;;;;27.10;11.93;;;;;;;8.11;68.67;95726.63;4180763;28;20063;-73
2023/01/04 09:41:10;;;;;;;19.48;10.25;;;;;;;8.34;68.53;95731.81;4180039;28;20060;-77
2023/01/04 09:43:17;;;;;;;14.95;10.13;;;;;;;8.33;68.26;95730.19;4159621;28;20060;-75
2023/01/04 09:45:25;;;;;;;17.50;9.95;;;;;;;8.39;67.69;95724.47;4179973;28;20068;-76
2023/01/04 09:48:04;;;;;;;14.93;10.48;;;;;;;8.31;68.52;95740.72;4171542;28;20065;-75
2023/01/04 09:50:28;;;;;;;17.27;9.90;;;;;;;8.46;68.69;95720.44;4162157;28;20053;-77
2023/01/04 09:52:52;;;;;;;16.00;10.73;;;;;;;8.54;68.29;95719.81;4155906;28;20088;-78
2023/01/04 09:54:58;;;;;;;14.85;10.05;;;;;;;8.58;67.97;95719.50;4182068;28;20049;-78
2023/01/04 09:57:23;;;;;;;16.52;10.25;;;;;;;8.66;67.46;95715.44;4150014;28;20052;-76
2023/01/04 09:59:30;;;;;;;18.92;10.95;;;;;;;8.66;68.38;95721.47;4149162;28;20212;-76
2023/01/04 10:01:52;;;;;;;18.40;11.00;;;;;;;8.71;67.53;95714.13;4160351;28;20398;-76
2023/01/04 10:04:00;;;;;;;16.88;10.38;;;;;;;8.77;66.63;95713.59;4167896;28;20493;-78
2023/01/04 10:06:02;;;;;;;15.73;9.98;;;;;;;8.77;67.85;95725.84;4182351;28;20118;-85
2023/01/04 10:08:11;;;;;;;18.88;10.73;;;;;;;8.68;67.73;95723.97;4157748;28;20061;-71
2023/01/04 10:10:19;;;;;;;20.17;10.68;;;;;;;8.58;67.40;95727.31;4154398;28;20081;-84
2023/01/04 10:12:27;;;;;;;18.60;10.85;;;;;;;8.39;68.72;95721.88;4177360;28;20057;-76
2023/01/04 10:14:54;;;;;;;15.90;10.43;;;;;;;8.20;69.64;95725.91;4174653;28;20049;-74
2023/01/04 10:17:02;;;;;;;18.52;10.68;;;;;;;8.02;69.97;95721.28;4176988;28;20159;-73
2023/01/04 10:19:23;;;;;;;16.02;10.68;;;;;;;8.10;69.84;95719.72;4155488;28;20185;-76
2023/01/04 10:21:55;;;;;;;16.92;10.50;;;;;;;8.43;68.85;95717.25;4165523;28;20485;-75
2023/01/04 10:24:44;;;;;;;14.90;9.93;;;;;;;8.51;68.14;95713.06;4160873;28;20462;-73
2023/01/04 10:26:48;;;;;;;19.02;11.05;;;;;;;8.52;67.63;95716.53;4172373;28;20416;-76
2023/01/04 10:28:56;;;;;;;15.23;10.60;;;;;;;8.57;68.31;95717.81;4173180;28;20057;-73
2023/01/04 10:31:16;;;;;;;16.63;9.80;;;;;;;8.45;68.08;95716.16;4159538;28;20049;-72
2023/01/04 10:33:49;;;;;;;19.35;11.95;;;;;;;8.51;68.04;95720.91;4160944;28;20068;-74